Time,TemperatureF,DewpointF,PressureIn,WindDirection,WindDirectionDegrees,WindSpeedMPH,WindSpeedGustMPH,Humidity,HourlyPrecipIn,Conditions,Clouds,dailyrainin,SoftwareType,DateUTC
2013-06-23 00:01:00,62.6,58.3,29.89,NW,315,0.0,4.0,86,0.00,,,0.00,meteohub,2013-06-23 04:01:00,
2013-06-23 00:02:00,62.6,58.3,29.89,NW,315,0.0,4.0,86,0.00,,,0.00,meteohub,2013-06-23 04:02:00,
2013-06-23 00:03:00,62.8,58.5,29.89,NW,315,1.0,4.0,86,0.00,,,0.00,meteohub,2013-06-23 04:03:00,
2013-06-23 00:07:00,62.8,58.3,29.89,NW,315,1.0,4.0,85,0.00,,,0.00,meteohub,2013-06-23 04:07:00,
2013-06-23 00:11:00,62.8,58.5,29.89,NW,315,0.0,2.0,86,0.00,,,0.00,meteohub,2013-06-23 04:11:00,
2013-06-23 00:17:00,62.6,58.1,29.89,NW,315,0.0,2.0,85,0.00,,,0.00,meteohub,2013-06-23 04:17:00,
2013-06-23 00:22:00,62.1,57.7,29.90,NW,315,0.0,2.0,86,0.00,,,0.00,meteohub,2013-06-23 04:22:00,
2013-06-23 00:27:00,61.7,57.4,29.89,NW,315,0.0,0.0,86,0.00,,,0.00,meteohub,2013-06-23 04:27:00,
2013-06-23 00:32:00,61.5,57.4,29.90,NW,315,0.0,0.0,86,0.00,,,0.00,meteohub,2013-06-23 04:32:00,
2013-06-23 00:37:00,61.3,57.2,29.90,NW,315,0.0,0.0,86,0.00,,,0.00,meteohub,2013-06-23 04:37:00,
2013-06-23 00:42:00,61.3,57.4,29.90,NW,315,0.0,0.0,87,0.00,,,0.00,meteohub,2013-06-23 04:42:00,
2013-06-23 00:47:00,61.2,57.2,29.90,NW,315,0.0,0.0,87,0.00,,,0.00,meteohub,2013-06-23 04:47:00,
2013-06-23 00:53:00,61.2,57.2,29.90,East,90,0.0,0.0,87,0.00,,,0.00,meteohub,2013-06-23 04:53:00,
2013-06-23 00:59:00,60.8,57.2,29.90,East,90,2.0,0.0,88,0.00,,,0.00,meteohub,2013-06-23 04:59:00,
2013-06-23 01:05:00,60.6,57.4,29.89,SE,135,2.0,2.0,89,0.00,,,0.00,meteohub,2013-06-23 05:05:00,
2013-06-23 01:12:00,60.3,57.0,29.90,SE,135,1.0,2.0,89,0.00,,,0.00,meteohub,2013-06-23 05:12:00,
2013-06-23 01:17:00,59.9,56.7,29.89,SE,135,1.0,2.0,89,0.00,,,0.00,meteohub,2013-06-23 05:17:00,
2013-06-23 01:22:00,59.9,56.7,29.89,SE,135,2.0,2.0,89,0.00,,,0.00,meteohub,2013-06-23 05:22:00,
2013-06-23 01:27:00,59.9,56.7,29.89,SE,135,1.0,2.0,89,0.00,,,0.00,meteohub,2013-06-23 05:27:00,
2013-06-23 01:32:00,59.7,56.5,29.89,SE,135,2.0,2.0,89,0.00,,,0.00,meteohub,2013-06-23 05:32:00,
2013-06-23 01:37:00,59.7,56.5,29.90,SE,135,1.0,2.0,89,0.00,,,0.00,meteohub,2013-06-23 05:37:00,
2013-06-23 01:42:00,59.7,56.8,29.89,SE,135,1.0,2.0,90,0.00,,,0.00,meteohub,2013-06-23 05:42:00,
2013-06-23 01:47:00,59.5,56.7,29.89,SE,135,0.0,2.0,90,0.00,,,0.00,meteohub,2013-06-23 05:47:00,
2013-06-23 01:52:00,59.5,56.7,29.89,SE,135,1.0,2.0,90,0.00,,,0.00,meteohub,2013-06-23 05:52:00,
2013-06-23 01:57:00,59.5,56.7,29.89,SE,135,1.0,1.0,90,0.00,,,0.00,meteohub,2013-06-23 05:57:00,
2013-06-23 02:02:00,59.5,56.7,29.89,SE,135,0.0,1.0,90,0.00,,,0.00,meteohub,2013-06-23 06:02:00,
2013-06-23 02:07:00,59.5,56.7,29.89,SE,135,0.0,1.0,90,0.00,,,0.00,meteohub,2013-06-23 06:07:00,
2013-06-23 02:12:00,59.5,56.8,29.88,SE,135,1.0,1.0,91,0.00,,,0.00,meteohub,2013-06-23 06:12:00,
2013-06-23 02:17:00,59.4,56.5,29.89,SE,135,1.0,1.0,90,0.00,,,0.00,meteohub,2013-06-23 06:17:00,
2013-06-23 02:20:00,59.2,56.3,29.89,SE,135,1.0,1.0,90,0.00,,,0.00,meteohub,2013-06-23 06:20:00,
2013-06-23 02:26:00,59.0,56.1,29.89,SE,135,0.0,1.0,90,0.00,,,0.00,meteohub,2013-06-23 06:26:00,
2013-06-23 02:32:00,58.8,56.1,29.89,SE,135,1.0,1.0,91,0.00,,,0.00,meteohub,2013-06-23 06:32:00,
2013-06-23 02:37:00,59.0,56.1,29.89,SE,135,1.0,1.0,90,0.00,,,0.00,meteohub,2013-06-23 06:37:00,
2013-06-23 02:42:00,59.0,56.3,29.88,SE,135,0.0,1.0,91,0.00,,,0.00,meteohub,2013-06-23 06:42:00,
2013-06-23 02:47:00,59.0,56.3,29.88,SE,135,1.0,1.0,91,0.00,,,0.00,meteohub,2013-06-23 06:47:00,
2013-06-23 02:52:00,58.8,56.5,29.89,SE,135,1.0,1.0,92,0.00,,,0.00,meteohub,2013-06-23 06:52:00,
2013-06-23 02:57:00,58.8,56.5,29.88,SE,135,0.0,1.0,92,0.00,,,0.00,meteohub,2013-06-23 06:57:00,
2013-06-23 03:02:00,58.8,56.5,29.89,SE,135,1.0,2.0,92,0.00,,,0.00,meteohub,2013-06-23 07:02:00,
2013-06-23 03:07:00,58.8,56.5,29.89,SE,135,1.0,2.0,92,0.00,,,0.00,meteohub,2013-06-23 07:07:00,
2013-06-23 03:12:00,58.8,56.8,29.89,SE,135,1.0,1.0,93,0.00,,,0.00,meteohub,2013-06-23 07:12:00,
2013-06-23 03:17:00,58.8,56.8,29.89,SE,135,1.0,1.0,93,0.00,,,0.00,meteohub,2013-06-23 07:17:00,
2013-06-23 03:22:00,58.8,56.8,29.89,SE,135,1.0,1.0,93,0.00,,,0.00,meteohub,2013-06-23 07:22:00,
2013-06-23 03:27:00,58.8,56.8,29.89,SE,135,1.0,1.0,93,0.00,,,0.00,meteohub,2013-06-23 07:27:00,
2013-06-23 03:32:00,58.8,56.8,29.89,SE,135,1.0,2.0,93,0.00,,,0.00,meteohub,2013-06-23 07:32:00,
2013-06-23 03:37:00,59.0,56.7,29.88,SE,135,2.0,2.0,92,0.00,,,0.00,meteohub,2013-06-23 07:37:00,
2013-06-23 03:42:00,59.2,56.8,29.88,SE,135,1.0,2.0,92,0.00,,,0.00,meteohub,2013-06-23 07:42:00,
2013-06-23 03:47:00,59.4,57.0,29.88,SE,135,1.0,2.0,92,0.00,,,0.00,meteohub,2013-06-23 07:47:00,
2013-06-23 03:52:00,59.4,57.4,29.88,SE,135,2.0,2.0,93,0.00,,,0.00,meteohub,2013-06-23 07:52:00,
2013-06-23 03:57:00,59.4,57.4,29.88,SE,135,0.0,2.0,93,0.00,,,0.00,meteohub,2013-06-23 07:57:00,
2013-06-23 04:02:00,59.5,57.6,29.88,SE,135,0.0,2.0,93,0.00,,,0.00,meteohub,2013-06-23 08:02:00,
2013-06-23 04:07:00,59.5,57.6,29.88,SE,135,0.0,2.0,93,0.00,,,0.00,meteohub,2013-06-23 08:07:00,
2013-06-23 04:13:00,59.5,57.6,29.88,SE,135,0.0,0.0,93,0.00,,,0.00,meteohub,2013-06-23 08:13:00,
2013-06-23 04:19:00,59.7,57.7,29.88,SE,135,0.0,0.0,93,0.00,,,0.00,meteohub,2013-06-23 08:19:00,
2013-06-23 04:25:00,59.9,57.9,29.88,SE,135,0.0,0.0,93,0.00,,,0.00,meteohub,2013-06-23 08:25:00,
2013-06-23 04:31:00,59.9,57.9,29.89,SE,135,0.0,0.0,93,0.00,,,0.00,meteohub,2013-06-23 08:31:00,
2013-06-23 04:37:00,60.4,58.5,29.89,West,270,0.0,2.0,93,0.00,,,0.00,meteohub,2013-06-23 08:37:00,
2013-06-23 04:42:00,60.8,58.5,29.89,West,270,1.0,2.0,92,0.00,,,0.00,meteohub,2013-06-23 08:42:00,
2013-06-23 04:47:00,61.0,58.6,29.89,NW,315,0.0,2.0,92,0.00,,,0.00,meteohub,2013-06-23 08:47:00,
2013-06-23 04:52:00,61.0,58.6,29.89,NW,315,0.0,2.0,92,0.00,,,0.00,meteohub,2013-06-23 08:52:00,
2013-06-23 04:57:00,60.8,58.5,29.89,NW,315,0.0,2.0,92,0.00,,,0.00,meteohub,2013-06-23 08:57:00,
2013-06-23 05:03:00,61.0,58.6,29.89,NW,315,0.0,2.0,92,0.00,,,0.00,meteohub,2013-06-23 09:03:00,
2013-06-23 05:09:00,61.0,58.6,29.89,SE,135,1.0,0.0,92,0.00,,,0.00,meteohub,2013-06-23 09:09:00,
2013-06-23 05:15:00,61.0,58.6,29.89,SE,135,0.0,1.0,92,0.00,,,0.00,meteohub,2013-06-23 09:15:00,
2013-06-23 05:21:00,61.0,58.6,29.90,NW,315,1.0,1.0,92,0.00,,,0.00,meteohub,2013-06-23 09:21:00,
2013-06-23 05:27:00,61.2,58.8,29.90,NW,315,0.0,1.0,92,0.00,,,0.00,meteohub,2013-06-23 09:27:00,
2013-06-23 05:32:00,61.2,58.8,29.90,NW,315,0.0,1.0,92,0.00,,,0.00,meteohub,2013-06-23 09:32:00,
2013-06-23 05:37:00,61.2,58.8,29.90,NW,315,0.0,1.0,92,0.00,,,0.00,meteohub,2013-06-23 09:37:00,
2013-06-23 05:44:00,61.0,58.6,29.90,East,90,0.0,0.0,92,0.00,,,0.00,meteohub,2013-06-23 09:44:00,
2013-06-23 05:50:00,61.0,58.6,29.90,East,90,0.0,0.0,92,0.00,,,0.00,meteohub,2013-06-23 09:50:00,
2013-06-23 05:56:00,60.8,58.5,29.90,East,90,0.0,0.0,92,0.00,,,0.00,meteohub,2013-06-23 09:56:00,
2013-06-23 06:02:00,60.8,58.1,29.90,East,90,0.0,0.0,91,0.00,,,0.00,meteohub,2013-06-23 10:02:00,
2013-06-23 06:07:00,60.8,58.1,29.90,East,90,0.0,0.0,91,0.00,,,0.00,meteohub,2013-06-23 10:07:00,
2013-06-23 06:12:00,60.8,58.1,29.91,East,90,0.0,0.0,91,0.00,,,0.00,meteohub,2013-06-23 10:12:00,
2013-06-23 06:17:00,60.8,58.5,29.90,East,90,0.0,0.0,92,0.00,,,0.00,meteohub,2013-06-23 10:17:00,
2013-06-23 06:22:00,60.8,58.5,29.90,East,90,0.0,0.0,92,0.00,,,0.00,meteohub,2013-06-23 10:22:00,
2013-06-23 06:27:00,60.8,58.5,29.89,East,90,2.0,2.0,92,0.00,,,0.00,meteohub,2013-06-23 10:27:00,
2013-06-23 06:32:00,61.0,58.6,29.90,East,90,0.0,2.0,92,0.00,,,0.00,meteohub,2013-06-23 10:32:00,
2013-06-23 06:37:00,61.0,58.6,29.89,East,90,2.0,2.0,92,0.00,,,0.00,meteohub,2013-06-23 10:37:00,
2013-06-23 06:42:00,61.2,58.8,29.89,East,90,0.0,2.0,92,0.00,,,0.00,meteohub,2013-06-23 10:42:00,
2013-06-23 06:47:00,61.2,58.8,29.89,East,90,0.0,2.0,92,0.00,,,0.00,meteohub,2013-06-23 10:47:00,
2013-06-23 06:52:00,61.5,59.2,29.89,East,90,0.0,2.0,92,0.00,,,0.00,meteohub,2013-06-23 10:52:00,
2013-06-23 06:57:00,61.7,59.7,29.89,East,90,0.0,1.0,93,0.00,,,0.00,meteohub,2013-06-23 10:57:00,
2013-06-23 07:02:00,61.9,59.9,29.89,East,90,0.0,1.0,93,0.00,,,0.00,meteohub,2013-06-23 11:02:00,
2013-06-23 07:07:00,62.1,60.1,29.89,East,90,0.0,1.0,93,0.00,,,0.00,meteohub,2013-06-23 11:07:00,
2013-06-23 07:12:00,62.1,60.1,29.89,East,90,0.0,1.0,93,0.00,,,0.00,meteohub,2013-06-23 11:12:00,
2013-06-23 07:17:00,62.2,60.3,29.89,East,90,0.0,1.0,93,0.00,,,0.00,meteohub,2013-06-23 11:17:00,
2013-06-23 07:22:00,62.2,60.3,29.89,East,90,0.0,1.0,93,0.00,,,0.00,meteohub,2013-06-23 11:22:00,
2013-06-23 07:27:00,62.4,60.4,29.89,East,90,0.0,1.0,93,0.00,,,0.00,meteohub,2013-06-23 11:27:00,
2013-06-23 07:32:00,62.6,60.3,29.89,East,90,1.0,1.0,92,0.00,,,0.00,meteohub,2013-06-23 11:32:00,
2013-06-23 07:37:00,62.6,60.3,29.89,East,90,0.0,1.0,92,0.00,,,0.00,meteohub,2013-06-23 11:37:00,
2013-06-23 07:42:00,62.8,60.4,29.89,East,90,0.0,1.0,92,0.00,,,0.00,meteohub,2013-06-23 11:42:00,
2013-06-23 07:47:00,63.0,61.0,29.89,East,90,1.0,1.0,93,0.00,,,0.00,meteohub,2013-06-23 11:47:00,
2013-06-23 07:52:00,63.0,61.0,29.90,East,90,0.0,1.0,93,0.00,,,0.00,meteohub,2013-06-23 11:52:00,
2013-06-23 07:57:00,63.1,61.2,29.90,East,90,0.0,1.0,93,0.00,,,0.00,meteohub,2013-06-23 11:57:00,
2013-06-23 08:02:00,63.1,61.2,29.90,East,90,0.0,1.0,93,0.00,,,0.00,meteohub,2013-06-23 12:02:00,
2013-06-23 08:07:00,63.1,61.2,29.89,East,90,0.0,1.0,93,0.00,,,0.00,meteohub,2013-06-23 12:07:00,
2013-06-23 08:12:00,63.1,61.2,29.89,East,90,0.0,1.0,93,0.00,,,0.00,meteohub,2013-06-23 12:12:00,
2013-06-23 08:17:00,63.3,61.3,29.89,East,90,1.0,1.0,93,0.00,,,0.00,meteohub,2013-06-23 12:17:00,
2013-06-23 08:22:00,63.5,61.5,29.89,East,90,0.0,1.0,93,0.00,,,0.00,meteohub,2013-06-23 12:22:00,
2013-06-23 08:27:00,63.5,61.5,29.89,East,90,0.0,1.0,93,0.00,,,0.00,meteohub,2013-06-23 12:27:00,
2013-06-23 08:32:00,63.7,61.7,29.90,East,90,0.0,1.0,93,0.00,,,0.00,meteohub,2013-06-23 12:32:00,
2013-06-23 08:37:00,63.9,61.9,29.90,East,90,0.0,0.0,93,0.00,,,0.00,meteohub,2013-06-23 12:37:00,
2013-06-23 08:42:00,64.0,62.1,29.89,East,90,1.0,0.0,93,0.00,,,0.00,meteohub,2013-06-23 12:42:00,
2013-06-23 08:47:00,63.9,61.9,29.89,East,90,0.0,2.0,93,0.01,,,0.01,meteohub,2013-06-23 12:47:00,
2013-06-23 08:53:00,64.2,62.2,29.89,East,90,0.0,2.0,93,0.01,,,0.01,meteohub,2013-06-23 12:53:00,
2013-06-23 08:59:00,64.4,63.0,29.89,East,90,0.0,2.0,95,0.01,,,0.01,meteohub,2013-06-23 12:59:00,
2013-06-23 09:05:00,64.4,63.0,29.89,East,90,0.0,1.0,95,0.01,,,0.01,meteohub,2013-06-23 13:05:00,
2013-06-23 09:11:00,64.6,63.1,29.90,East,90,0.0,1.0,95,0.01,,,0.01,meteohub,2013-06-23 13:11:00,
2013-06-23 09:17:00,64.6,63.1,29.90,East,90,0.0,1.0,95,0.01,,,0.01,meteohub,2013-06-23 13:17:00,
2013-06-23 09:22:00,64.6,63.1,29.90,East,90,1.0,0.0,95,0.01,,,0.01,meteohub,2013-06-23 13:22:00,
2013-06-23 09:27:00,64.8,63.3,29.90,East,90,1.0,1.0,95,0.01,,,0.01,meteohub,2013-06-23 13:27:00,
2013-06-23 09:32:00,64.8,63.3,29.90,East,90,0.0,1.0,95,0.01,,,0.01,meteohub,2013-06-23 13:32:00,
2013-06-23 09:38:00,64.6,63.1,29.90,East,90,0.0,1.0,95,0.01,,,0.01,meteohub,2013-06-23 13:38:00,
2013-06-23 09:44:00,64.8,63.3,29.89,East,90,0.0,2.0,95,0.00,,,0.01,meteohub,2013-06-23 13:44:00,
2013-06-23 09:50:00,64.8,63.3,29.89,East,90,0.0,2.0,95,0.00,,,0.01,meteohub,2013-06-23 13:50:00,
2013-06-23 09:56:00,64.8,63.3,29.88,East,90,0.0,1.0,95,0.00,,,0.01,meteohub,2013-06-23 13:56:00,
2013-06-23 10:04:00,64.8,63.3,29.88,East,90,0.0,1.0,95,0.00,,,0.01,meteohub,2013-06-23 14:04:00,
2013-06-23 10:10:00,64.9,63.5,29.88,East,90,0.0,1.0,95,0.00,,,0.01,meteohub,2013-06-23 14:10:00,
2013-06-23 10:17:00,65.1,63.7,29.88,East,90,0.0,1.0,95,0.00,,,0.01,meteohub,2013-06-23 14:17:00,
2013-06-23 10:22:00,65.3,64.0,29.88,East,90,0.0,0.0,96,0.00,,,0.01,meteohub,2013-06-23 14:22:00,
2013-06-23 10:27:00,65.5,64.2,29.88,East,90,0.0,1.0,96,0.00,,,0.01,meteohub,2013-06-23 14:27:00,
2013-06-23 10:32:00,65.5,64.2,29.88,East,90,0.0,1.0,96,0.00,,,0.01,meteohub,2013-06-23 14:32:00,
2013-06-23 10:37:00,65.5,64.2,29.88,East,90,0.0,1.0,96,0.00,,,0.01,meteohub,2013-06-23 14:37:00,
2013-06-23 10:43:00,65.5,64.2,29.88,East,90,0.0,0.0,96,0.00,,,0.01,meteohub,2013-06-23 14:43:00,
2013-06-23 10:49:00,65.5,64.2,29.88,East,90,2.0,0.0,96,0.00,,,0.01,meteohub,2013-06-23 14:49:00,
2013-06-23 10:55:00,65.3,64.0,29.88,East,90,2.0,2.0,96,0.00,,,0.01,meteohub,2013-06-23 14:55:00,
2013-06-23 11:01:00,65.1,64.0,29.88,East,90,2.0,2.0,96,0.00,,,0.01,meteohub,2013-06-23 15:01:00,
2013-06-23 11:07:00,65.1,64.0,29.88,East,90,2.0,2.0,96,0.00,,,0.01,meteohub,2013-06-23 15:07:00,
2013-06-23 11:12:00,65.5,64.2,29.88,East,90,2.0,2.0,96,0.00,,,0.01,meteohub,2013-06-23 15:12:00,
2013-06-23 11:17:00,65.8,64.6,29.88,NW,315,2.0,2.0,96,0.00,,,0.01,meteohub,2013-06-23 15:17:00,
2013-06-23 11:22:00,66.0,64.8,29.87,NW,315,1.0,2.0,96,0.00,,,0.01,meteohub,2013-06-23 15:22:00,
2013-06-23 11:27:00,66.4,64.9,29.87,NW,315,0.0,2.0,95,0.00,,,0.01,meteohub,2013-06-23 15:27:00,
2013-06-23 11:32:00,66.7,65.3,29.87,East,90,1.0,2.0,95,0.00,,,0.01,meteohub,2013-06-23 15:32:00,
2013-06-23 11:37:00,66.7,65.3,29.87,ESE,113,1.0,2.0,95,0.00,,,0.01,meteohub,2013-06-23 15:37:00,
2013-06-23 11:43:00,66.7,65.3,29.87,SE,135,1.0,2.0,95,0.00,,,0.01,meteohub,2013-06-23 15:43:00,
2013-06-23 11:50:00,66.9,65.5,29.87,SE,135,1.0,2.0,95,0.00,,,0.01,meteohub,2013-06-23 15:50:00,
2013-06-23 11:56:00,67.5,66.0,29.87,SW,225,0.0,1.0,95,0.00,,,0.01,meteohub,2013-06-23 15:56:00,
2013-06-23 12:02:00,68.0,66.2,29.87,NW,315,1.0,1.0,94,0.00,,,0.01,meteohub,2013-06-23 16:02:00,
2013-06-23 12:07:00,68.4,66.2,29.87,NW,315,0.0,1.0,93,0.00,,,0.01,meteohub,2013-06-23 16:07:00,
2013-06-23 12:12:00,68.7,66.6,29.86,NE,45,1.0,1.0,93,0.00,,,0.01,meteohub,2013-06-23 16:12:00,
2013-06-23 12:17:00,68.7,66.6,29.86,West,270,0.0,1.0,93,0.00,,,0.01,meteohub,2013-06-23 16:17:00,
2013-06-23 12:22:00,69.1,66.9,29.85,NW,315,0.0,1.0,93,0.00,,,0.01,meteohub,2013-06-23 16:22:00,
2013-06-23 12:28:00,69.6,67.3,29.85,SE,135,0.0,1.0,92,0.00,,,0.01,meteohub,2013-06-23 16:28:00,
2013-06-23 12:34:00,70.2,67.5,29.85,South,180,2.0,2.0,91,0.00,,,0.01,meteohub,2013-06-23 16:34:00,
2013-06-23 12:41:00,70.9,68.2,29.85,SE,135,1.0,2.0,91,0.00,,,0.01,meteohub,2013-06-23 16:41:00,
2013-06-23 12:47:00,71.1,68.0,29.85,NW,315,0.0,2.0,90,0.00,,,0.01,meteohub,2013-06-23 16:47:00,
2013-06-23 12:52:00,71.8,68.4,29.85,SE,135,2.0,2.0,89,0.00,,,0.01,meteohub,2013-06-23 16:52:00,
2013-06-23 12:57:00,72.1,68.4,29.85,West,270,0.0,2.0,88,0.00,,,0.01,meteohub,2013-06-23 16:57:00,
2013-06-23 12:59:00,72.3,68.2,29.85,South,180,2.0,2.0,87,0.00,,,0.01,meteohub,2013-06-23 16:59:00,
2013-06-23 13:01:00,72.3,67.8,29.85,South,180,1.0,2.0,86,0.00,,,0.01,meteohub,2013-06-23 17:01:00,
2013-06-23 13:03:00,72.3,67.6,29.85,West,270,2.0,2.0,85,0.00,,,0.01,meteohub,2013-06-23 17:03:00,
2013-06-23 13:07:00,72.3,66.9,29.85,West,270,1.0,2.0,83,0.00,,,0.01,meteohub,2013-06-23 17:07:00,
2013-06-23 13:12:00,72.5,67.1,29.84,South,180,1.0,4.0,83,0.00,,,0.01,meteohub,2013-06-23 17:12:00,
2013-06-23 13:15:00,72.3,66.9,29.83,SE,135,2.0,4.0,83,0.00,,,0.01,meteohub,2013-06-23 17:15:00,
2013-06-23 13:21:00,72.3,66.9,29.83,East,90,1.0,2.0,83,0.00,,,0.01,meteohub,2013-06-23 17:21:00,
2013-06-23 13:27:00,72.7,67.6,29.83,NW,315,2.0,2.0,84,0.00,,,0.01,meteohub,2013-06-23 17:27:00,
2013-06-23 13:32:00,73.2,67.5,29.83,South,180,1.0,2.0,82,0.00,,,0.01,meteohub,2013-06-23 17:32:00,
2013-06-23 13:37:00,74.1,68.0,29.83,NW,315,3.0,3.0,81,0.00,,,0.01,meteohub,2013-06-23 17:37:00,
2013-06-23 13:44:00,74.8,67.1,29.82,West,270,2.0,3.0,77,0.00,,,0.01,meteohub,2013-06-23 17:44:00,
2013-06-23 13:50:00,75.6,67.5,29.82,NW,315,2.0,3.0,76,0.00,,,0.01,meteohub,2013-06-23 17:50:00,
2013-06-23 13:56:00,76.1,67.3,29.82,NW,315,3.0,4.0,74,0.00,,,0.01,meteohub,2013-06-23 17:56:00,
2013-06-23 14:02:00,76.6,67.3,29.82,West,270,4.0,4.0,73,0.00,,,0.01,meteohub,2013-06-23 18:02:00,
2013-06-23 14:07:00,76.8,67.1,29.82,NW,315,2.0,4.0,72,0.00,,,0.01,meteohub,2013-06-23 18:07:00,
2013-06-23 14:12:00,77.2,66.6,29.82,West,270,2.0,4.0,70,0.00,,,0.01,meteohub,2013-06-23 18:12:00,
2013-06-23 14:17:00,77.4,66.4,29.82,West,270,3.0,4.0,69,0.00,,,0.01,meteohub,2013-06-23 18:17:00,
2013-06-23 14:22:00,77.9,66.9,29.82,NW,315,3.0,4.0,69,0.00,,,0.01,meteohub,2013-06-23 18:22:00,
2013-06-23 14:27:00,77.7,66.7,29.82,NW,315,4.0,4.0,69,0.00,,,0.01,meteohub,2013-06-23 18:27:00,
2013-06-23 14:32:00,77.2,65.8,29.82,NW,315,5.0,5.0,68,0.00,,,0.01,meteohub,2013-06-23 18:32:00,
2013-06-23 14:37:00,77.4,66.0,29.81,NW,315,4.0,5.0,68,0.00,,,0.01,meteohub,2013-06-23 18:37:00,
2013-06-23 14:42:00,77.4,66.0,29.82,West,270,2.0,5.0,68,0.00,,,0.01,meteohub,2013-06-23 18:42:00,
2013-06-23 14:47:00,77.0,65.7,29.81,NW,315,4.0,5.0,68,0.00,,,0.01,meteohub,2013-06-23 18:47:00,
2013-06-23 14:52:00,76.1,65.7,29.81,NW,315,2.0,4.0,70,0.00,,,0.01,meteohub,2013-06-23 18:52:00,
2013-06-23 14:57:00,75.7,65.7,29.81,NW,315,3.0,4.0,71,0.00,,,0.01,meteohub,2013-06-23 18:57:00,
2013-06-23 15:02:00,75.9,66.2,29.81,NW,315,5.0,5.0,72,0.00,,,0.01,meteohub,2013-06-23 19:02:00,
2013-06-23 15:07:00,75.7,66.0,29.81,NW,315,4.0,6.0,72,0.00,,,0.01,meteohub,2013-06-23 19:07:00,
2013-06-23 15:12:00,75.6,66.4,29.81,NW,315,4.0,6.0,73,0.00,,,0.01,meteohub,2013-06-23 19:12:00,
2013-06-23 15:18:00,76.3,66.6,29.80,NW,315,2.0,6.0,72,0.00,,,0.01,meteohub,2013-06-23 19:18:00,
2013-06-23 15:24:00,77.2,65.8,29.80,West,270,2.0,4.0,68,0.00,,,0.01,meteohub,2013-06-23 19:24:00,
2013-06-23 15:30:00,76.6,66.2,29.80,West,270,2.0,4.0,70,0.00,,,0.01,meteohub,2013-06-23 19:30:00,
2013-06-23 15:36:00,75.7,66.0,29.80,North,0,1.0,4.0,72,0.00,,,0.01,meteohub,2013-06-23 19:36:00,
2013-06-23 15:42:00,75.0,66.6,29.80,NW,315,1.0,4.0,75,0.00,,,0.01,meteohub,2013-06-23 19:42:00,
2013-06-23 15:47:00,75.0,66.6,29.80,NW,315,2.0,3.0,75,0.00,,,0.01,meteohub,2013-06-23 19:47:00,
2013-06-23 15:52:00,76.5,66.7,29.80,NW,315,4.0,4.0,72,0.00,,,0.01,meteohub,2013-06-23 19:52:00,
2013-06-23 15:57:00,76.8,66.7,29.79,NW,315,2.0,4.0,71,0.00,,,0.01,meteohub,2013-06-23 19:57:00,
2013-06-23 16:02:00,77.0,66.9,29.79,SW,225,0.0,4.0,71,0.00,,,0.01,meteohub,2013-06-23 20:02:00,
2013-06-23 16:07:00,77.0,66.9,29.79,SE,135,2.0,4.0,71,0.00,,,0.01,meteohub,2013-06-23 20:07:00,
2013-06-23 16:12:00,77.5,66.6,29.79,West,270,1.0,4.0,69,0.00,,,0.01,meteohub,2013-06-23 20:12:00,
2013-06-23 16:17:00,78.3,66.7,29.78,SW,225,2.0,3.0,68,0.00,,,0.01,meteohub,2013-06-23 20:17:00,
2013-06-23 16:22:00,78.1,67.1,29.78,South,180,0.0,3.0,69,0.00,,,0.01,meteohub,2013-06-23 20:22:00,
2013-06-23 16:27:00,77.4,66.0,29.78,NW,315,1.0,2.0,68,0.00,,,0.01,meteohub,2013-06-23 20:27:00,
2013-06-23 16:32:00,76.6,65.7,29.77,East,90,2.0,2.0,69,0.00,,,0.01,meteohub,2013-06-23 20:32:00,
2013-06-23 16:37:00,77.0,65.7,29.77,West,270,1.0,2.0,68,0.00,,,0.01,meteohub,2013-06-23 20:37:00,
2013-06-23 16:42:00,77.2,66.2,29.77,SW,225,1.0,2.0,69,0.00,,,0.01,meteohub,2013-06-23 20:42:00,
2013-06-23 16:47:00,76.8,66.2,29.77,South,180,1.0,2.0,70,0.00,,,0.01,meteohub,2013-06-23 20:47:00,
2013-06-23 16:52:00,76.3,65.8,29.77,West,270,1.0,2.0,70,0.00,,,0.01,meteohub,2013-06-23 20:52:00,
2013-06-23 16:57:00,75.7,66.0,29.77,NW,315,1.0,2.0,72,0.00,,,0.01,meteohub,2013-06-23 20:57:00,
2013-06-23 17:02:00,75.2,65.5,29.77,NW,315,3.0,3.0,72,0.00,,,0.01,meteohub,2013-06-23 21:02:00,
2013-06-23 17:07:00,75.0,65.8,29.77,West,270,1.0,4.0,73,0.00,,,0.01,meteohub,2013-06-23 21:07:00,
2013-06-23 17:12:00,74.8,65.1,29.77,NW,315,0.0,4.0,72,0.00,,,0.01,meteohub,2013-06-23 21:12:00,
2013-06-23 17:17:00,74.7,65.1,29.76,NW,315,2.0,4.0,72,0.00,,,0.01,meteohub,2013-06-23 21:17:00,
2013-06-23 17:22:00,74.7,65.5,29.77,West,270,2.0,3.0,73,0.00,,,0.01,meteohub,2013-06-23 21:22:00,
2013-06-23 17:27:00,74.1,64.9,29.77,West,270,2.0,3.0,73,0.00,,,0.01,meteohub,2013-06-23 21:27:00,
2013-06-23 17:32:00,73.8,64.9,29.77,West,270,0.0,3.0,74,0.00,,,0.01,meteohub,2013-06-23 21:32:00,
2013-06-23 17:37:00,73.8,65.3,29.76,South,180,0.0,3.0,75,0.00,,,0.01,meteohub,2013-06-23 21:37:00,
2013-06-23 17:42:00,73.2,64.8,29.77,South,180,0.0,2.0,75,0.00,,,0.01,meteohub,2013-06-23 21:42:00,
2013-06-23 17:47:00,72.7,64.2,29.76,SE,135,0.0,2.0,75,0.00,,,0.01,meteohub,2013-06-23 21:47:00,
2013-06-23 17:52:00,72.3,63.9,29.76,SE,135,0.0,2.0,75,0.00,,,0.01,meteohub,2013-06-23 21:52:00,
2013-06-23 17:57:00,72.3,64.4,29.76,South,180,0.0,2.0,76,0.00,,,0.01,meteohub,2013-06-23 21:57:00,
2013-06-23 18:02:00,72.3,64.8,29.76,South,180,0.0,1.0,77,0.00,,,0.01,meteohub,2013-06-23 22:02:00,
2013-06-23 18:07:00,72.1,64.6,29.75,NW,315,0.0,1.0,77,0.00,,,0.01,meteohub,2013-06-23 22:07:00,
2013-06-23 18:12:00,72.0,64.8,29.75,South,180,0.0,1.0,78,0.00,,,0.01,meteohub,2013-06-23 22:12:00,
2013-06-23 18:17:00,71.8,64.2,29.75,North,0,0.0,1.0,77,0.00,,,0.01,meteohub,2013-06-23 22:17:00,
2013-06-23 18:22:00,71.6,64.4,29.75,South,180,0.0,1.0,78,0.00,,,0.01,meteohub,2013-06-23 22:22:00,
2013-06-23 18:27:00,71.1,64.6,29.75,West,270,0.0,0.0,80,0.00,,,0.01,meteohub,2013-06-23 22:27:00,
2013-06-23 18:32:00,71.1,64.6,29.75,NW,315,0.0,0.0,80,0.00,,,0.01,meteohub,2013-06-23 22:32:00,
2013-06-23 18:38:00,71.2,64.8,29.75,NW,315,0.0,0.0,80,0.00,,,0.01,meteohub,2013-06-23 22:38:00,
2013-06-23 18:44:00,71.1,64.2,29.75,NW,315,1.0,2.0,79,0.00,,,0.01,meteohub,2013-06-23 22:44:00,
2013-06-23 18:50:00,70.9,64.0,29.75,South,180,1.0,2.0,79,0.00,,,0.01,meteohub,2013-06-23 22:50:00,
2013-06-23 18:56:00,70.3,63.9,29.75,South,180,0.0,2.0,80,0.00,,,0.01,meteohub,2013-06-23 22:56:00,
2013-06-23 19:02:00,70.0,63.9,29.75,South,180,1.0,2.0,81,0.00,,,0.01,meteohub,2013-06-23 23:02:00,
2013-06-23 19:07:00,70.0,64.2,29.75,South,180,0.0,1.0,82,0.00,,,0.01,meteohub,2013-06-23 23:07:00,
2013-06-23 19:12:00,69.8,64.0,29.76,South,180,0.0,2.0,82,0.00,,,0.01,meteohub,2013-06-23 23:12:00,
2013-06-23 19:17:00,69.8,64.0,29.75,SW,225,1.0,2.0,82,0.00,,,0.01,meteohub,2013-06-23 23:17:00,
2013-06-23 19:22:00,69.6,64.2,29.76,SE,135,2.0,2.0,83,0.00,,,0.01,meteohub,2013-06-23 23:22:00,
2013-06-23 19:27:00,69.1,63.7,29.75,SE,135,1.0,2.0,83,0.00,,,0.01,meteohub,2013-06-23 23:27:00,
2013-06-23 19:32:00,68.5,63.1,29.76,SE,135,1.0,2.0,83,0.00,,,0.01,meteohub,2013-06-23 23:32:00,
2013-06-23 19:37:00,68.2,62.8,29.76,South,180,1.0,2.0,83,0.00,,,0.01,meteohub,2013-06-23 23:37:00,
2013-06-23 19:42:00,68.0,62.6,29.76,SE,135,1.0,2.0,83,0.00,,,0.01,meteohub,2013-06-23 23:42:00,
2013-06-23 19:47:00,67.6,62.6,29.77,SE,135,0.0,2.0,84,0.00,,,0.01,meteohub,2013-06-23 23:47:00,
2013-06-23 19:52:00,67.5,62.4,29.77,SE,135,0.0,2.0,84,0.00,,,0.01,meteohub,2013-06-23 23:52:00,
2013-06-23 19:57:00,67.3,62.6,29.76,SE,135,0.0,1.0,85,0.00,,,0.01,meteohub,2013-06-23 23:57:00,
2013-06-23 20:02:00,67.1,62.4,29.76,South,180,2.0,2.0,85,0.00,,,0.01,meteohub,2013-06-24 00:02:00,
2013-06-23 20:07:00,66.7,62.1,29.76,SE,135,0.0,2.0,85,0.00,,,0.01,meteohub,2013-06-24 00:07:00,
2013-06-23 20:13:00,66.6,61.9,29.76,East,90,0.0,2.0,85,0.00,,,0.01,meteohub,2013-06-24 00:13:00,
2013-06-23 20:19:00,66.6,61.9,29.75,SE,135,1.0,2.0,85,0.00,,,0.01,meteohub,2013-06-24 00:19:00,
2013-06-23 20:25:00,66.2,61.9,29.75,SE,135,0.0,2.0,86,0.00,,,0.01,meteohub,2013-06-24 00:25:00,
2013-06-23 20:31:00,66.0,62.1,29.75,East,90,1.0,2.0,87,0.00,,,0.01,meteohub,2013-06-24 00:31:00,
2013-06-23 20:37:00,65.8,61.9,29.75,East,90,1.0,1.0,87,0.00,,,0.01,meteohub,2013-06-24 00:37:00,
2013-06-23 20:43:00,65.7,61.7,29.75,East,90,1.0,1.0,87,0.00,,,0.01,meteohub,2013-06-24 00:43:00,
2013-06-23 20:49:00,65.3,61.3,29.74,SE,135,1.0,1.0,87,0.00,,,0.01,meteohub,2013-06-24 00:49:00,
2013-06-23 20:55:00,65.1,61.2,29.74,SE,135,0.0,1.0,87,0.00,,,0.01,meteohub,2013-06-24 00:55:00,
2013-06-23 21:01:00,64.9,61.3,29.75,SE,135,1.0,1.0,88,0.00,,,0.01,meteohub,2013-06-24 01:01:00,
2013-06-23 21:07:00,64.9,61.3,29.75,SE,135,0.0,1.0,88,0.00,,,0.01,meteohub,2013-06-24 01:07:00,
2013-06-23 21:12:00,64.8,61.2,29.75,SE,135,1.0,1.0,88,0.00,,,0.01,meteohub,2013-06-24 01:12:00,
2013-06-23 21:17:00,64.6,61.0,29.75,SE,135,1.0,1.0,88,0.00,,,0.01,meteohub,2013-06-24 01:17:00,
2013-06-23 21:22:00,64.4,60.8,29.75,SE,135,0.0,2.0,88,0.00,,,0.01,meteohub,2013-06-24 01:22:00,
2013-06-23 21:27:00,64.2,60.3,29.75,SE,135,0.0,2.0,87,0.00,,,0.01,meteohub,2013-06-24 01:27:00,
2013-06-23 21:32:00,64.2,60.3,29.75,SE,135,2.0,2.0,87,0.00,,,0.01,meteohub,2013-06-24 01:32:00,
2013-06-23 21:37:00,64.2,60.6,29.75,SE,135,0.0,2.0,88,0.00,,,0.01,meteohub,2013-06-24 01:37:00,
2013-06-23 21:42:00,64.0,60.4,29.75,SE,135,0.0,2.0,88,0.00,,,0.01,meteohub,2013-06-24 01:42:00,
2013-06-23 21:47:00,64.0,60.4,29.75,SE,135,1.0,2.0,88,0.00,,,0.01,meteohub,2013-06-24 01:47:00,
2013-06-23 21:52:00,63.9,60.3,29.74,SE,135,1.0,2.0,88,0.00,,,0.01,meteohub,2013-06-24 01:52:00,
2013-06-23 21:57:00,63.9,60.3,29.74,SE,135,1.0,1.0,88,0.00,,,0.01,meteohub,2013-06-24 01:57:00,
2013-06-23 22:02:00,63.9,60.3,29.75,SE,135,0.0,1.0,88,0.00,,,0.01,meteohub,2013-06-24 02:02:00,
2013-06-23 22:07:00,63.9,60.3,29.75,SE,135,0.0,1.0,88,0.00,,,0.01,meteohub,2013-06-24 02:07:00,
2013-06-23 22:12:00,63.9,60.6,29.74,SE,135,2.0,2.0,89,0.00,,,0.01,meteohub,2013-06-24 02:12:00,
2013-06-23 22:17:00,63.7,60.4,29.74,SE,135,2.0,2.0,89,0.00,,,0.01,meteohub,2013-06-24 02:17:00,
2013-06-23 22:22:00,63.7,60.4,29.73,SE,135,2.0,2.0,89,0.00,,,0.01,meteohub,2013-06-24 02:22:00,
2013-06-23 22:27:00,63.5,60.3,29.73,SE,135,1.0,2.0,89,0.00,,,0.01,meteohub,2013-06-24 02:27:00,
2013-06-23 22:32:00,63.5,60.3,29.73,SE,135,1.0,2.0,89,0.00,,,0.01,meteohub,2013-06-24 02:32:00,
2013-06-23 22:37:00,63.3,60.1,29.73,SE,135,2.0,2.0,89,0.00,,,0.01,meteohub,2013-06-24 02:37:00,
2013-06-23 22:42:00,63.3,60.1,29.73,SE,135,0.0,2.0,89,0.00,,,0.01,meteohub,2013-06-24 02:42:00,
2013-06-23 22:47:00,63.3,60.1,29.73,SE,135,1.0,2.0,89,0.00,,,0.01,meteohub,2013-06-24 02:47:00,
2013-06-23 22:52:00,63.3,60.1,29.73,SE,135,0.0,2.0,89,0.00,,,0.01,meteohub,2013-06-24 02:52:00,
2013-06-23 22:58:00,63.3,60.1,29.75,NW,315,0.0,1.0,89,0.00,,,0.01,meteohub,2013-06-24 02:58:00,
2013-06-23 23:04:00,63.7,60.6,29.75,NW,315,3.0,3.0,90,0.00,,,0.01,meteohub,2013-06-24 03:04:00,
2013-06-23 23:10:00,64.0,61.3,29.74,West,270,1.0,3.0,91,0.00,,,0.01,meteohub,2013-06-24 03:10:00,
2013-06-23 23:16:00,64.2,61.5,29.74,South,180,1.0,3.0,91,0.00,,,0.01,meteohub,2013-06-24 03:16:00,
2013-06-23 23:22:00,64.2,61.5,29.73,NW,315,2.0,2.0,91,0.00,,,0.01,meteohub,2013-06-24 03:22:00,
2013-06-23 23:27:00,64.6,61.9,29.73,WNW,293,4.0,4.0,91,0.00,,,0.01,meteohub,2013-06-24 03:27:00,
2013-06-23 23:32:00,65.1,62.4,29.73,NW,315,0.0,5.0,91,0.00,,,0.01,meteohub,2013-06-24 03:32:00,
2013-06-23 23:37:00,64.9,62.2,29.74,NW,315,4.0,5.0,91,0.00,,,0.01,meteohub,2013-06-24 03:37:00,
2013-06-23 23:42:00,65.3,63.0,29.75,NW,315,4.0,5.0,92,0.00,,,0.01,meteohub,2013-06-24 03:42:00,
2013-06-23 23:47:00,65.5,63.1,29.74,West,270,4.0,5.0,92,0.00,,,0.01,meteohub,2013-06-24 03:47:00,
2013-06-23 23:52:00,65.5,63.1,29.74,NW,315,5.0,5.0,92,0.00,,,0.01,meteohub,2013-06-24 03:52:00,
2013-06-23 23:57:00,65.3,63.0,29.73,NW,315,2.0,5.0,92,0.00,,,0.01,meteohub,2013-06-24 03:57:00,